createdAt,value
2022-08-24T00:00:29.054Z,96510.09
2022-08-24T00:02:57.638Z,96510.72
2022-08-24T00:05:26.153Z,96516.91
2022-08-24T00:07:56.044Z,96508.03
2022-08-24T00:10:24.650Z,96515.44
2022-08-24T00:12:53.138Z,96513.56
2022-08-24T00:15:21.691Z,96505.13
2022-08-24T00:17:50.415Z,96503.66
2022-08-24T00:20:19.013Z,96501.78
2022-08-24T00:22:47.744Z,96504.03
2022-08-24T00:25:19.917Z,96503.44
2022-08-24T00:27:48.773Z,96505.25
2022-08-24T00:30:20.324Z,96504.41
2022-08-24T00:32:50.452Z,96505.00
2022-08-24T00:35:19.935Z,96514.66
2022-08-24T00:37:50.036Z,96507.59
2022-08-24T00:40:23.573Z,96503.44
2022-08-24T00:42:52.192Z,96507.94
2022-08-24T00:45:22.148Z,96498.19
2022-08-24T00:47:59.057Z,96501.53
2022-08-24T00:50:34.272Z,96495.97
2022-08-24T00:53:07.096Z,96498.41
2022-08-24T00:55:40.185Z,96496.31
2022-08-24T00:58:17.127Z,96500.44
2022-08-24T01:00:54.390Z,96507.44
2022-08-24T01:03:23.416Z,96498.56
2022-08-24T01:05:51.939Z,96496.72
2022-08-24T01:08:23.323Z,96494.22
2022-08-24T01:10:58.008Z,96495.28
2022-08-24T01:13:27.001Z,96487.91
2022-08-24T01:16:00.436Z,96494.31
2022-08-24T01:18:47.082Z,96495.97
2022-08-24T01:21:20.175Z,96485.66
2022-08-24T01:23:51.635Z,96498.00
2022-08-24T01:26:23.399Z,96482.16
2022-08-24T01:28:56.953Z,96482.97
2022-08-24T01:31:26.782Z,96479.69
2022-08-24T01:33:56.648Z,96485.47
2022-08-24T01:36:33.024Z,96477.44
2022-08-24T01:39:07.748Z,96477.66
2022-08-24T01:41:36.215Z,96479.97
2022-08-24T01:44:05.696Z,96475.25
2022-08-24T01:46:34.287Z,96489.53
2022-08-24T01:49:02.947Z,96488.78
2022-08-24T01:51:32.909Z,96485.69
2022-08-24T01:54:03.765Z,96480.25
2022-08-24T01:56:33.507Z,96476.06
2022-08-24T01:59:02.935Z,96475.06
2022-08-24T02:01:35.952Z,96479.44
2022-08-24T02:04:09.613Z,96477.63
2022-08-24T02:06:39.803Z,96474.13
2022-08-24T02:09:09.617Z,96474.78
2022-08-24T02:11:39.237Z,96477.69
2022-08-24T02:14:08.516Z,96477.88
2022-08-24T02:16:36.987Z,96475.00
2022-08-24T02:19:05.774Z,96487.56
2022-08-24T02:21:34.515Z,96494.19
2022-08-24T02:24:03.377Z,96489.25
2022-08-24T02:26:33.443Z,96488.03
2022-08-24T02:29:03.672Z,96496.72
2022-08-24T02:31:33.764Z,96489.28
2022-08-24T02:34:02.916Z,96490.94
2022-08-24T02:36:31.895Z,96494.41
2022-08-24T02:39:00.915Z,96501.56
2022-08-24T02:41:29.523Z,96507.25
2022-08-24T02:43:59.785Z,96504.53
2022-08-24T02:46:30.771Z,96494.94
2022-08-24T02:49:11.327Z,96506.06
2022-08-24T02:51:43.999Z,96503.63
2022-08-24T02:54:17.436Z,96512.28
2022-08-24T02:56:46.310Z,96503.44
2022-08-24T02:59:16.828Z,96504.91
2022-08-24T03:01:46.304Z,96500.00
2022-08-24T03:04:18.187Z,96501.03
2022-08-24T03:06:46.723Z,96500.00
2022-08-24T03:09:15.507Z,96508.00
2022-08-24T03:11:45.460Z,96495.41
2022-08-24T03:14:14.581Z,96502.59
2022-08-24T03:16:44.555Z,96506.50
2022-08-24T03:19:13.639Z,96500.34
2022-08-24T03:21:42.538Z,96510.22
2022-08-24T03:24:11.051Z,96503.03
2022-08-24T03:26:40.088Z,96507.94
2022-08-24T03:29:12.708Z,96504.19
2022-08-24T03:31:42.935Z,96506.25
2022-08-24T03:34:13.453Z,96507.63
2022-08-24T03:36:45.149Z,96506.84
2022-08-24T03:39:13.879Z,96504.97
2022-08-24T03:41:42.365Z,96518.72
2022-08-24T03:44:10.884Z,96519.59
2022-08-24T03:46:40.207Z,96515.69
2022-08-24T03:49:10.824Z,96517.16
2022-08-24T03:51:40.847Z,96515.13
2022-08-24T03:54:10.975Z,96509.81
2022-08-24T03:56:39.980Z,96511.47
2022-08-24T03:59:10.616Z,96500.16
2022-08-24T04:01:40.298Z,96507.97
2022-08-24T04:04:08.988Z,96510.84
2022-08-24T04:06:37.497Z,96496.66
2022-08-24T04:09:07.934Z,96499.16
2022-08-24T04:11:39.463Z,96501.44
2022-08-24T04:14:23.704Z,96502.88
2022-08-24T04:16:57.387Z,96508.00
2022-08-24T04:19:27.368Z,96496.28
2022-08-24T04:21:57.481Z,96502.00
2022-08-24T04:24:29.082Z,96511.03
2022-08-24T04:26:57.521Z,96517.22
2022-08-24T04:29:26.075Z,96512.06
2022-08-24T04:31:55.107Z,96513.72
2022-08-24T04:34:23.588Z,96515.53
2022-08-24T04:36:52.037Z,96514.25
2022-08-24T04:39:20.480Z,96517.13
2022-08-24T04:41:50.580Z,96513.44
2022-08-24T04:44:19.146Z,96520.59
2022-08-24T04:46:47.619Z,96523.78
2022-08-24T04:49:16.155Z,96522.72
2022-08-24T04:51:44.621Z,96524.63
2022-08-24T04:54:13.123Z,96526.44
2022-08-24T04:56:41.679Z,96537.59
2022-08-24T04:59:11.680Z,96535.13
2022-08-24T05:01:42.779Z,96532.22
2022-08-24T05:04:11.596Z,96543.66
2022-08-24T05:06:42.918Z,96537.94
2022-08-24T05:09:12.347Z,96544.75
2022-08-24T05:11:41.456Z,96545.88
2022-08-24T05:14:19.500Z,96549.97
2022-08-24T05:16:53.089Z,96543.00
2022-08-24T05:19:24.165Z,96543.47
2022-08-24T05:21:53.131Z,96551.31
2022-08-24T05:24:21.715Z,96548.44
2022-08-24T05:26:51.446Z,96559.56
2022-08-24T05:29:23.220Z,96550.78
2022-08-24T05:31:52.093Z,96552.22
2022-08-24T05:34:20.656Z,96561.69
2022-08-24T05:36:50.227Z,96552.63
2022-08-24T05:39:19.121Z,96552.63
2022-08-24T05:41:48.617Z,96563.09
2022-08-24T05:44:18.866Z,96562.09
2022-08-24T05:46:48.843Z,96560.03
2022-08-24T05:49:17.375Z,96566.59
2022-08-24T05:51:46.013Z,96562.09
2022-08-24T05:54:14.750Z,96567.66
2022-08-24T05:56:44.928Z,96563.13
2022-08-24T05:59:13.992Z,96563.97
2022-08-24T06:01:45.349Z,96569.31
2022-08-24T06:04:15.593Z,96570.13
2022-08-24T06:06:44.176Z,96569.53
2022-08-24T06:09:17.792Z,96570.97
2022-08-24T06:11:46.940Z,96572.41
2022-08-24T06:14:20.994Z,96563.75
2022-08-24T06:16:52.693Z,96571.13
2022-08-24T06:19:23.335Z,96563.94
2022-08-24T06:21:53.813Z,96563.31
2022-08-24T06:24:44.373Z,96576.88
2022-08-24T06:27:21.365Z,96578.97
2022-08-24T06:29:50.764Z,96571.94
2022-08-24T06:32:19.556Z,96579.53
2022-08-24T06:34:49.417Z,96579.94
2022-08-24T06:37:18.552Z,96582.38
2022-08-24T06:39:47.155Z,96587.50
2022-08-24T06:42:16.155Z,96588.31
2022-08-24T06:44:44.723Z,96592.59
2022-08-24T06:47:13.524Z,96589.69
2022-08-24T06:49:42.984Z,96595.22
2022-08-24T06:52:13.004Z,96596.84
2022-08-24T06:54:41.453Z,96597.41
2022-08-24T06:57:10.307Z,96599.03
2022-08-24T06:59:38.781Z,96601.72
2022-08-24T07:02:10.374Z,96593.81
2022-08-24T07:04:38.961Z,96593.19
2022-08-24T07:07:07.456Z,96595.00
2022-08-24T07:09:37.447Z,96589.66
2022-08-24T07:12:06.504Z,96589.66
2022-08-24T07:14:35.204Z,96597.41
2022-08-24T07:17:03.645Z,96601.91
2022-08-24T07:19:32.293Z,96607.03
2022-08-24T07:22:00.832Z,96598.50
2022-08-24T07:24:29.401Z,96602.16
2022-08-24T07:26:59.273Z,96595.09
2022-08-24T07:29:47.268Z,96601.22
2022-08-24T07:32:16.192Z,96597.06
2022-08-24T07:34:44.653Z,96597.66
2022-08-24T07:37:13.169Z,96586.63
2022-08-24T07:39:41.737Z,96584.63
2022-08-24T07:42:14.070Z,96580.31
2022-08-24T07:44:44.618Z,96588.31
2022-08-24T07:47:37.055Z,96585.94
2022-08-24T07:50:01.829Z,96591.41
2022-08-24T07:52:32.877Z,96584.97
2022-08-24T07:55:02.520Z,96583.66
2022-08-24T07:57:34.977Z,96577.41
2022-08-24T08:00:04.932Z,96582.94
2022-08-24T08:02:36.167Z,96579.66
2022-08-24T08:05:05.701Z,96581.06
2022-08-24T08:07:34.380Z,96579.34
2022-08-24T08:10:03.274Z,96576.59
2022-08-24T08:12:35.027Z,96576.91
2022-08-24T08:15:03.576Z,96585.84
2022-08-24T08:17:33.609Z,96582.63
2022-08-24T08:20:02.098Z,96576.34
2022-08-24T08:22:44.825Z,96579.56
2022-08-24T08:25:14.220Z,96583.16
2022-08-24T08:27:45.549Z,96580.75
2022-08-24T08:30:14.831Z,96579.78
2022-08-24T08:32:43.323Z,96580.38
2022-08-24T08:35:11.860Z,96581.56
2022-08-24T08:37:40.528Z,96579.25
2022-08-24T08:40:16.985Z,96583.94
2022-08-24T08:43:01.381Z,96573.91
2022-08-24T08:45:36.892Z,96570.53
2022-08-24T08:48:50.388Z,96574.91
2022-08-24T08:51:57.274Z,96575.28
2022-08-24T08:54:38.867Z,96565.03
2022-08-24T08:57:45.339Z,96562.84
2022-08-24T09:00:18.837Z,96566.81
2022-08-24T09:03:18.763Z,96562.72
2022-08-24T09:05:59.814Z,96565.41
2022-08-24T09:08:44.008Z,96565.03
2022-08-24T09:11:32.321Z,96563.63
2022-08-24T09:14:31.362Z,96571.44
2022-08-24T09:17:16.110Z,96571.09
2022-08-24T09:20:00.557Z,96569.31
2022-08-24T09:22:29.492Z,96567.53
2022-08-24T09:25:15.797Z,96566.06
2022-08-24T09:27:56.965Z,96566.38
2022-08-24T09:30:27.396Z,96552.34
2022-08-24T09:33:06.743Z,96553.06
2022-08-24T09:36:00.924Z,96553.63
2022-08-24T09:38:50.755Z,96553.56
2022-08-24T09:42:02.841Z,96557.56
2022-08-24T09:45:04.376Z,96551.59
2022-08-24T09:47:56.020Z,96549.28
2022-08-24T09:50:55.537Z,96528.91
2022-08-24T09:54:00.259Z,96540.94
2022-08-24T09:56:45.333Z,96537.59
2022-08-24T09:59:28.306Z,96537.97
2022-08-24T10:02:14.470Z,96533.13
2022-08-24T10:04:52.181Z,96532.84
2022-08-24T10:07:29.507Z,96526.19
2022-08-24T10:10:18.892Z,96531.50
2022-08-24T10:12:59.947Z,96530.25
2022-08-24T10:15:33.793Z,96521.66
2022-08-24T10:18:20.496Z,96514.91
2022-08-24T10:21:12.909Z,96514.28
2022-08-24T10:23:59.977Z,96511.78
2022-08-24T10:26:37.674Z,96513.25
2022-08-24T10:29:24.040Z,96503.66
2022-08-24T10:32:12.143Z,96508.91
2022-08-24T10:34:56.716Z,96505.22
2022-08-24T10:37:45.932Z,96505.91
2022-08-24T10:40:31.612Z,96508.72
2022-08-24T10:43:35.837Z,96501.25
2022-08-24T10:46:34.224Z,96499.16
2022-08-24T10:49:32.267Z,96495.44
2022-08-24T10:52:26.144Z,96504.75
2022-08-24T10:54:55.187Z,96503.16
2022-08-24T10:57:36.788Z,96499.69
2022-08-24T11:00:10.255Z,96496.97
2022-08-24T11:02:40.685Z,96499.22
2022-08-24T11:05:12.864Z,96494.59
2022-08-24T11:08:02.537Z,96498.44
2022-08-24T11:10:35.887Z,96494.09
2022-08-24T11:13:24.105Z,96497.13
2022-08-24T11:15:56.232Z,96493.91
2022-08-24T11:18:25.230Z,96499.09
2022-08-24T11:20:56.590Z,96493.69
2022-08-24T11:23:31.458Z,96494.28
2022-08-24T11:26:05.033Z,96491.56
2022-08-24T11:28:40.963Z,96489.09
2022-08-24T11:31:13.130Z,96482.59
2022-08-24T11:33:49.689Z,96481.50
2022-08-24T11:36:21.154Z,96476.06
2022-08-24T11:39:10.489Z,96485.03
2022-08-24T11:41:50.400Z,96479.88
2022-08-24T11:44:31.315Z,96480.41
2022-08-24T11:47:04.763Z,96471.44
2022-08-24T11:49:45.636Z,96471.72
2022-08-24T11:52:27.264Z,96477.44
2022-08-24T11:55:05.243Z,96473.13
2022-08-24T11:57:47.735Z,96470.63
2022-08-24T12:00:19.791Z,96475.53
2022-08-24T12:02:59.193Z,96466.56
2022-08-24T12:05:41.535Z,96465.47
2022-08-24T12:08:21.207Z,96469.81
2022-08-24T12:10:59.264Z,96463.75
2022-08-24T12:13:40.170Z,96458.88
2022-08-24T12:16:14.364Z,96464.28
2022-08-24T12:18:54.667Z,96454.19
2022-08-24T12:21:27.375Z,96458.25
2022-08-24T12:24:00.459Z,96462.03
2022-08-24T12:26:32.323Z,96460.91
2022-08-24T12:29:07.980Z,96457.03
2022-08-24T12:31:42.488Z,96465.69
2022-08-24T12:34:19.331Z,96460.22
2022-08-24T12:36:59.820Z,96457.25
2022-08-24T12:39:36.068Z,96460.25
2022-08-24T12:42:17.037Z,96459.44
2022-08-24T12:44:54.243Z,96458.03
2022-08-24T12:47:29.457Z,96449.00
2022-08-24T12:50:07.030Z,96443.84
2022-08-24T12:53:22.955Z,96449.25
2022-08-24T12:56:17.380Z,96449.75
2022-08-24T12:58:57.144Z,96449.94
2022-08-24T13:01:29.748Z,96441.22
2022-08-24T13:04:32.560Z,96442.84
2022-08-24T13:07:06.305Z,96439.66
2022-08-24T13:09:38.391Z,96448.97
2022-08-24T13:12:44.993Z,96436.66
2022-08-24T13:15:52.197Z,96436.31
2022-08-24T13:18:53.447Z,96438.94
2022-08-24T13:21:43.943Z,96435.38
2022-08-24T13:24:49.932Z,96437.75
2022-08-24T13:28:03.256Z,96437.41
2022-08-24T13:30:52.030Z,96436.88
2022-08-24T13:33:32.422Z,96434.06
2022-08-24T13:36:29.900Z,96431.84
2022-08-24T13:39:05.322Z,96430.72
2022-08-24T13:41:48.692Z,96425.44
2022-08-24T13:44:26.734Z,96433.88
2022-08-24T13:47:04.002Z,96426.25
2022-08-24T13:49:51.555Z,96423.84
2022-08-24T13:52:33.088Z,96420.03
2022-08-24T13:55:14.747Z,96422.19
2022-08-24T13:57:47.140Z,96418.91
2022-08-24T14:00:39.447Z,96423.47
2022-08-24T14:03:30.932Z,96412.28
2022-08-24T14:06:10.008Z,96415.53
2022-08-24T14:08:51.719Z,96418.53
2022-08-24T14:11:36.167Z,96419.59
2022-08-24T14:14:11.569Z,96416.00
2022-08-24T14:17:19.353Z,96413.28
2022-08-24T14:20:03.193Z,96414.59
2022-08-24T14:22:38.336Z,96423.28
2022-08-24T14:25:22.103Z,96416.19
2022-08-24T14:27:52.747Z,96408.31
2022-08-24T14:30:45.373Z,96419.97
2022-08-24T14:33:22.939Z,96418.28
2022-08-24T14:36:15.026Z,96414.19
2022-08-24T14:38:53.431Z,96410.84
2022-08-24T14:41:36.781Z,96417.06
2022-08-24T14:44:13.921Z,96412.41
2022-08-24T14:46:52.858Z,96415.97
2022-08-24T14:49:30.144Z,96409.47
2022-08-24T14:52:24.280Z,96410.50
2022-08-24T14:55:05.041Z,96410.00
2022-08-24T14:57:58.761Z,96409.53
2022-08-24T15:00:48.336Z,96400.59
2022-08-24T15:03:54.680Z,96407.13
2022-08-24T15:06:28.392Z,96404.13
2022-08-24T15:09:09.974Z,96398.94
2022-08-24T15:11:41.068Z,96397.88
2022-08-24T15:14:22.609Z,96392.69
2022-08-24T15:16:55.475Z,96395.50
2022-08-24T15:19:32.248Z,96399.09
2022-08-24T15:22:04.811Z,96389.03
2022-08-24T15:24:41.138Z,96392.41
2022-08-24T15:27:20.464Z,96398.69
2022-08-24T15:29:54.120Z,96390.53
2022-08-24T15:32:28.242Z,96392.44
2022-08-24T15:34:59.211Z,96392.16
2022-08-24T15:37:31.944Z,96395.69
2022-08-24T15:40:01.505Z,96392.97
2022-08-24T15:42:35.183Z,96386.41
2022-08-24T15:45:06.707Z,96391.03
2022-08-24T15:47:37.499Z,96395.16
2022-08-24T15:50:09.489Z,96390.53
2022-08-24T15:52:45.851Z,96388.06
2022-08-24T15:55:28.740Z,96385.94
2022-08-24T15:57:58.373Z,96394.69
2022-08-24T16:00:55.398Z,96392.84
2022-08-24T16:03:27.968Z,96397.81
2022-08-24T16:06:16.904Z,96388.88
2022-08-24T16:08:56.379Z,96387.56
2022-08-24T16:11:31.140Z,96386.75
2022-08-24T16:14:01.111Z,96382.66
2022-08-24T16:16:40.085Z,96389.50
2022-08-24T16:19:21.201Z,96388.47
2022-08-24T16:21:55.757Z,96393.38
2022-08-24T16:24:33.051Z,96398.31
2022-08-24T16:27:05.275Z,96397.00
2022-08-24T16:29:46.099Z,96402.72
2022-08-24T16:32:21.168Z,96396.50
2022-08-24T16:34:53.455Z,96396.84
2022-08-24T16:37:23.459Z,96396.63
2022-08-24T16:39:52.502Z,96394.53
2022-08-24T16:42:27.271Z,96393.81
2022-08-24T16:44:56.475Z,96396.84
2022-08-24T16:47:27.754Z,96399.34
2022-08-24T16:49:56.840Z,96399.16
2022-08-24T16:52:25.263Z,96399.47
2022-08-24T16:55:08.099Z,96398.97
2022-08-24T16:58:08.343Z,96400.09
2022-08-24T17:02:14.635Z,96391.97
2022-08-24T17:04:44.488Z,96394.44
2022-08-24T17:08:01.371Z,96401.78
2022-08-24T17:11:04.888Z,96399.09
2022-08-24T17:14:11.380Z,96394.50
2022-08-24T17:17:35.975Z,96403.72
2022-08-24T17:20:57.513Z,96405.94
2022-08-24T17:24:30.297Z,96406.78
2022-08-24T17:27:36.823Z,96407.31
2022-08-24T17:30:37.693Z,96406.00
2022-08-24T17:34:18.495Z,96402.50
2022-08-24T17:40:33.279Z,96414.97
2022-08-24T17:43:22.476Z,96410.09
2022-08-24T17:45:55.065Z,96413.88
2022-08-24T17:48:47.587Z,96420.13
2022-08-24T17:51:29.472Z,96413.31
2022-08-24T17:54:30.797Z,96417.69
2022-08-24T17:57:16.590Z,96416.56
2022-08-24T17:59:52.015Z,96414.38
2022-08-24T18:02:36.688Z,96423.84
2022-08-24T18:05:20.125Z,96414.88
2022-08-24T18:08:03.632Z,96418.63
2022-08-24T18:10:40.683Z,96420.25
2022-08-24T18:13:15.568Z,96425.09
2022-08-24T18:16:01.812Z,96433.47
2022-08-24T18:18:39.359Z,96426.06
2022-08-24T18:21:18.897Z,96436.06
2022-08-24T18:24:07.963Z,96433.34
2022-08-24T18:26:59.788Z,96439.28
2022-08-24T18:29:35.720Z,96439.50
2022-08-24T18:32:26.817Z,96433.22
2022-08-24T18:35:19.628Z,96443.47
2022-08-24T18:37:53.833Z,96442.91
2022-08-24T18:40:37.433Z,96448.56
2022-08-24T18:43:07.980Z,96453.41
2022-08-24T18:45:56.826Z,96453.38
2022-08-24T18:48:31.367Z,96461.41
2022-08-24T18:51:14.604Z,96461.38
2022-08-24T18:53:50.251Z,96471.09
2022-08-24T18:56:29.224Z,96470.16
2022-08-24T18:59:25.299Z,96469.22
2022-08-24T19:02:16.708Z,96471.34
2022-08-24T19:05:02.648Z,96477.41
2022-08-24T19:07:54.026Z,96470.38
2022-08-24T19:10:40.920Z,96482.84
2022-08-24T19:13:31.127Z,96478.50
2022-08-24T19:16:18.277Z,96490.28
2022-08-24T19:19:04.952Z,96486.25
2022-08-24T19:21:38.049Z,96487.25
2022-08-24T19:24:11.193Z,96483.47
2022-08-24T19:26:44.326Z,96479.13
2022-08-24T19:32:23.273Z,96485.75
2022-08-24T19:35:09.055Z,96483.88
2022-08-24T19:37:41.837Z,96484.44
2022-08-24T19:40:19.419Z,96484.47
2022-08-24T19:42:58.269Z,96478.22
2022-08-24T19:45:47.214Z,96490.56
2022-08-24T19:48:25.648Z,96479.47
2022-08-24T19:51:03.529Z,96489.66
2022-08-24T19:53:51.179Z,96482.78
2022-08-24T19:56:25.018Z,96483.59
2022-08-24T19:59:04.605Z,96483.19
2022-08-24T20:01:42.866Z,96482.22
2022-08-24T20:04:17.729Z,96488.25
2022-08-24T20:06:55.044Z,96491.72
2022-08-24T20:09:30.583Z,96484.66
2022-08-24T20:12:01.802Z,96486.34
2022-08-24T20:14:37.440Z,96494.94
2022-08-24T20:17:10.051Z,96495.56
2022-08-24T20:19:53.648Z,96494.78
2022-08-24T20:22:25.617Z,96490.59
2022-08-24T20:24:56.456Z,96487.91
2022-08-24T20:27:34.246Z,96495.59
2022-08-24T20:30:05.350Z,96489.31
2022-08-24T20:32:40.057Z,96492.88
2022-08-24T20:35:30.331Z,96488.19
2022-08-24T20:38:11.401Z,96492.59
2022-08-24T20:40:45.947Z,96500.34
2022-08-24T20:43:27.125Z,96493.56
2022-08-24T20:46:04.627Z,96502.03
2022-08-24T20:48:41.555Z,96494.16
2022-08-24T20:51:29.532Z,96495.22
2022-08-24T20:54:08.212Z,96495.09
2022-08-24T20:56:52.647Z,96489.38
2022-08-24T20:59:33.376Z,96490.63
2022-08-24T21:02:13.490Z,96498.75
2022-08-24T21:04:49.986Z,96493.94
2022-08-24T21:07:29.848Z,96486.91
2022-08-24T21:10:09.707Z,96489.59
2022-08-24T21:12:52.512Z,96489.94
2022-08-24T21:15:26.706Z,96487.00
2022-08-24T21:17:56.180Z,96491.44
2022-08-24T21:20:51.351Z,96487.25
2022-08-24T21:23:57.706Z,96485.38
2022-08-24T21:26:39.788Z,96488.47
2022-08-24T21:29:19.141Z,96490.59
2022-08-24T21:32:08.944Z,96499.63
2022-08-24T21:34:46.077Z,96490.81
2022-08-24T21:37:22.992Z,96493.19
2022-08-24T21:39:58.794Z,96490.34
2022-08-24T21:42:29.573Z,96485.91
2022-08-24T21:45:20.161Z,96489.25
2022-08-24T21:47:56.227Z,96485.63
2022-08-24T21:50:40.970Z,96495.13
2022-08-24T21:53:18.076Z,96487.03
2022-08-24T21:56:07.035Z,96480.56
2022-08-24T21:58:47.458Z,96487.69
2022-08-24T22:01:29.863Z,96482.09
2022-08-24T22:04:15.023Z,96485.22
2022-08-24T22:06:44.449Z,96485.78
2022-08-24T22:09:15.216Z,96478.53
2022-08-24T22:11:44.237Z,96488.34
2022-08-24T22:14:15.943Z,96483.59
2022-08-24T22:16:45.610Z,96489.19
2022-08-24T22:19:17.792Z,96484.16
2022-08-24T22:21:50.356Z,96482.06
2022-08-24T22:24:19.139Z,96488.28
2022-08-24T22:26:48.069Z,96484.81
2022-08-24T22:29:17.919Z,96473.47
2022-08-24T22:31:46.651Z,96479.09
2022-08-24T22:34:19.639Z,96485.19
2022-08-24T22:36:50.214Z,96475.22
2022-08-24T22:39:18.831Z,96474.19
2022-08-24T22:41:47.263Z,96465.16
2022-08-24T22:44:24.108Z,96473.59
2022-08-24T22:46:54.462Z,96457.91
2022-08-24T22:49:25.312Z,96459.88
2022-08-24T22:51:53.963Z,96461.28
2022-08-24T22:54:23.769Z,96456.72
2022-08-24T22:56:54.945Z,96460.34
2022-08-24T22:59:27.380Z,96452.72
2022-08-24T23:01:57.892Z,96453.66
2022-08-24T23:04:29.044Z,96446.31
2022-08-24T23:07:00.027Z,96450.88
2022-08-24T23:09:28.553Z,96453.50
2022-08-24T23:12:07.264Z,96446.88
2022-08-24T23:14:37.899Z,96451.91
2022-08-24T23:17:09.843Z,96440.47
2022-08-24T23:19:55.761Z,96448.22
2022-08-24T23:22:25.772Z,96446.88
2022-08-24T23:24:57.370Z,96438.31
2022-08-24T23:27:27.619Z,96434.47
2022-08-24T23:30:05.390Z,96434.00
2022-08-24T23:32:37.562Z,96447.25
2022-08-24T23:35:07.221Z,96437.59
2022-08-24T23:37:35.713Z,96441.88
2022-08-24T23:40:04.996Z,96431.25
2022-08-24T23:42:33.700Z,96431.63
2022-08-24T23:45:04.112Z,96432.47
2022-08-24T23:47:36.248Z,96442.53
2022-08-24T23:50:10.795Z,96431.25
2022-08-24T23:52:40.950Z,96433.88
2022-08-24T23:55:21.190Z,96433.16
2022-08-24T23:57:51.890Z,96426.41
